createdAt,value
2019-03-20T00:00:04.157Z,1025.99
2019-03-20T00:01:04.120Z,1025.95
2019-03-20T00:02:04.099Z,1025.93
2019-03-20T00:03:04.078Z,1026.02
2019-03-20T00:04:04.584Z,1026.00
2019-03-20T00:05:04.076Z,1026.01
2019-03-20T00:06:04.058Z,1026.05
2019-03-20T00:07:04.058Z,1026.07
2019-03-20T00:08:04.024Z,1026.07
2019-03-20T00:09:04.030Z,1026.05
2019-03-20T00:10:05.031Z,1026.13
2019-03-20T00:11:04.026Z,1026.12
2019-03-20T00:12:06.575Z,1026.15
2019-03-20T00:13:04.115Z,1026.11
2019-03-20T00:14:04.056Z,1026.14
2019-03-20T00:15:04.016Z,1026.16
2019-03-20T00:16:04.041Z,1026.13
2019-03-20T00:17:04.205Z,1026.15
2019-03-20T00:18:03.954Z,1026.15
2019-03-20T00:19:05.518Z,1026.12
2019-03-20T00:20:04.308Z,1026.12
2019-03-20T00:21:03.939Z,1026.13
2019-03-20T00:22:03.911Z,1026.12
2019-03-20T00:23:03.945Z,1026.11
2019-03-20T00:24:03.905Z,1026.14
2019-03-20T00:25:03.893Z,1026.12
2019-03-20T00:26:03.898Z,1026.17
2019-03-20T00:27:03.865Z,1026.17
2019-03-20T00:28:03.828Z,1026.19
2019-03-20T00:29:03.827Z,1026.21
2019-03-20T00:30:03.824Z,1026.19
2019-03-20T00:31:03.862Z,1026.24
2019-03-20T00:32:03.856Z,1026.24
2019-03-20T00:33:03.867Z,1026.29
2019-03-20T00:34:03.794Z,1026.29
2019-03-20T00:35:03.875Z,1026.26
2019-03-20T00:36:03.849Z,1026.24
2019-03-20T00:37:04.518Z,1026.23
2019-03-20T00:38:03.815Z,1026.21
2019-03-20T00:39:03.796Z,1026.20
2019-03-20T00:40:03.801Z,1026.18
2019-03-20T00:41:03.809Z,1026.19
2019-03-20T00:42:03.758Z,1026.16
2019-03-20T00:43:03.709Z,1026.23
2019-03-20T00:44:03.708Z,1026.20
2019-03-20T00:45:04.520Z,1026.18
2019-03-20T00:46:03.653Z,1026.16
2019-03-20T00:47:03.651Z,1026.22
2019-03-20T00:48:03.664Z,1026.16
2019-03-20T00:49:03.649Z,1026.20
2019-03-20T00:50:03.609Z,1026.22
2019-03-20T00:51:03.657Z,1026.19
2019-03-20T00:52:03.629Z,1026.14
2019-03-20T00:53:03.650Z,1026.14
2019-03-20T00:54:03.636Z,1026.14
2019-03-20T00:55:04.520Z,1026.09
2019-03-20T00:56:03.543Z,1026.13
2019-03-20T00:57:03.587Z,1026.13
2019-03-20T00:58:03.536Z,1026.12
2019-03-20T00:59:03.530Z,1026.16
2019-03-20T01:00:03.490Z,1026.17
2019-03-20T01:01:03.523Z,1026.16
2019-03-20T01:02:03.525Z,1026.13
2019-03-20T01:03:03.565Z,1026.05
2019-03-20T01:04:03.453Z,1026.10
2019-03-20T01:05:12.248Z,1026.15
2019-03-20T01:06:04.438Z,1026.14
2019-03-20T01:07:03.421Z,1026.19
2019-03-20T01:08:03.412Z,1026.18
2019-03-20T01:09:03.446Z,1026.16
2019-03-20T01:10:03.377Z,1026.16
2019-03-20T01:11:03.399Z,1026.15
2019-03-20T01:12:03.390Z,1026.15
2019-03-20T01:13:03.448Z,1026.21
2019-03-20T01:14:03.353Z,1026.16
2019-03-20T01:15:03.390Z,1026.17
2019-03-20T01:16:03.410Z,1026.22
2019-03-20T01:17:03.365Z,1026.20
2019-03-20T01:18:03.371Z,1026.18
2019-03-20T01:19:03.362Z,1026.19
2019-03-20T01:20:03.337Z,1026.21
2019-03-20T01:21:03.312Z,1026.21
2019-03-20T01:22:03.291Z,1026.21
2019-03-20T01:23:03.315Z,1026.17
2019-03-20T01:24:03.338Z,1026.18
2019-03-20T01:25:03.299Z,1026.19
2019-03-20T01:26:03.321Z,1026.17
2019-03-20T01:27:03.256Z,1026.16
2019-03-20T01:28:03.298Z,1026.20
2019-03-20T01:29:03.298Z,1026.19
2019-03-20T01:30:03.227Z,1026.16
2019-03-20T01:31:03.183Z,1026.23
2019-03-20T01:32:03.196Z,1026.26
2019-03-20T01:33:03.182Z,1026.26
2019-03-20T01:34:03.191Z,1026.27
2019-03-20T01:35:03.217Z,1026.24
2019-03-20T01:36:03.178Z,1026.20
2019-03-20T01:37:03.194Z,1026.26
2019-03-20T01:38:04.023Z,1026.25
2019-03-20T01:39:03.078Z,1026.22
2019-03-20T01:40:03.062Z,1026.25
2019-03-20T01:41:03.079Z,1026.29
2019-03-20T01:42:03.099Z,1026.28
2019-03-20T01:43:03.048Z,1026.27
2019-03-20T01:44:03.036Z,1026.25
2019-03-20T01:45:03.046Z,1026.30
2019-03-20T01:46:03.008Z,1026.29
2019-03-20T01:47:02.990Z,1026.29
2019-03-20T01:48:02.985Z,1026.33
2019-03-20T01:49:02.959Z,1026.32
2019-03-20T01:50:02.991Z,1026.36
2019-03-20T01:51:02.970Z,1026.31
2019-03-20T01:52:02.964Z,1026.35
2019-03-20T01:53:02.948Z,1026.28
2019-03-20T01:54:02.917Z,1026.29
2019-03-20T01:55:02.920Z,1026.31
2019-03-20T01:56:02.897Z,1026.32
2019-03-20T01:57:02.875Z,1026.31
2019-03-20T01:58:02.889Z,1026.34
2019-03-20T01:59:02.862Z,1026.28
2019-03-20T02:00:02.845Z,1026.39
2019-03-20T02:01:02.901Z,1026.36
2019-03-20T02:02:02.828Z,1026.38
2019-03-20T02:03:02.859Z,1026.33
2019-03-20T02:04:02.820Z,1026.34
2019-03-20T02:05:02.834Z,1026.34
2019-03-20T02:06:02.865Z,1026.34
2019-03-20T02:07:02.784Z,1026.35
2019-03-20T02:08:02.837Z,1026.36
2019-03-20T02:09:02.752Z,1026.30
2019-03-20T02:10:02.752Z,1026.34
2019-03-20T02:11:02.738Z,1026.37
2019-03-20T02:12:02.733Z,1026.35
2019-03-20T02:13:02.717Z,1026.34
2019-03-20T02:14:02.738Z,1026.36
2019-03-20T02:15:02.734Z,1026.36
2019-03-20T02:16:02.699Z,1026.36
2019-03-20T02:17:02.690Z,1026.36
2019-03-20T02:18:02.711Z,1026.38
2019-03-20T02:19:02.674Z,1026.43
2019-03-20T02:20:02.637Z,1026.45
2019-03-20T02:21:02.638Z,1026.44
2019-03-20T02:22:02.611Z,1026.40
2019-03-20T02:23:02.613Z,1026.41
2019-03-20T02:24:02.646Z,1026.42
2019-03-20T02:25:02.613Z,1026.41
2019-03-20T02:26:02.579Z,1026.42
2019-03-20T02:27:02.568Z,1026.45
2019-03-20T02:28:02.588Z,1026.43
2019-03-20T02:29:02.587Z,1026.37
2019-03-20T02:30:02.598Z,1026.40
2019-03-20T02:31:02.526Z,1026.40
2019-03-20T02:32:02.534Z,1026.44
2019-03-20T02:33:02.553Z,1026.40
2019-03-20T02:34:02.500Z,1026.40
2019-03-20T02:35:02.496Z,1026.37
2019-03-20T02:36:02.495Z,1026.40
2019-03-20T02:37:02.451Z,1026.41
2019-03-20T02:38:02.451Z,1026.39
2019-03-20T02:39:02.437Z,1026.40
2019-03-20T02:40:02.428Z,1026.36
2019-03-20T02:41:02.458Z,1026.35
2019-03-20T02:42:02.456Z,1026.34
2019-03-20T02:43:02.400Z,1026.38
2019-03-20T02:44:02.424Z,1026.38
2019-03-20T02:45:02.380Z,1026.38
2019-03-20T02:46:02.405Z,1026.39
2019-03-20T02:47:02.354Z,1026.40
2019-03-20T02:48:02.381Z,1026.45
2019-03-20T02:49:02.353Z,1026.47
2019-03-20T02:50:02.358Z,1026.50
2019-03-20T02:51:02.332Z,1026.50
2019-03-20T02:52:04.075Z,1026.49
2019-03-20T02:53:02.314Z,1026.46
2019-03-20T02:54:02.272Z,1026.48
2019-03-20T02:55:02.305Z,1026.53
2019-03-20T02:56:02.265Z,1026.50
2019-03-20T02:57:02.291Z,1026.46
2019-03-20T02:58:02.317Z,1026.47
2019-03-20T02:59:02.259Z,1026.51
2019-03-20T03:00:02.230Z,1026.49
2019-03-20T03:01:02.227Z,1026.54
2019-03-20T03:02:02.226Z,1026.59
2019-03-20T03:03:02.200Z,1026.66
2019-03-20T03:04:02.179Z,1026.64
2019-03-20T03:05:02.171Z,1026.65
2019-03-20T03:06:07.382Z,1026.64
2019-03-20T03:07:03.204Z,1026.63
2019-03-20T03:08:02.145Z,1026.59
2019-03-20T03:09:02.160Z,1026.56
2019-03-20T03:10:02.124Z,1026.59
2019-03-20T03:11:02.141Z,1026.61
2019-03-20T03:12:02.094Z,1026.57
2019-03-20T03:13:02.121Z,1026.57
2019-03-20T03:14:02.120Z,1026.60
2019-03-20T03:15:02.076Z,1026.60
2019-03-20T03:16:02.064Z,1026.56
2019-03-20T03:17:02.088Z,1026.56
2019-03-20T03:18:02.047Z,1026.56
2019-03-20T03:19:02.072Z,1026.58
2019-03-20T03:20:02.066Z,1026.57
2019-03-20T03:21:02.041Z,1026.65
2019-03-20T03:22:02.027Z,1026.62
2019-03-20T03:23:01.997Z,1026.68
2019-03-20T03:24:02.050Z,1026.63
2019-03-20T03:25:01.978Z,1026.62
2019-03-20T03:26:01.976Z,1026.58
2019-03-20T03:27:01.972Z,1026.59
2019-03-20T03:28:01.938Z,1026.60
2019-03-20T03:29:01.940Z,1026.60
2019-03-20T03:30:02.002Z,1026.58
2019-03-20T03:31:01.912Z,1026.60
2019-03-20T03:32:01.913Z,1026.58
2019-03-20T03:33:01.891Z,1026.53
2019-03-20T03:34:01.934Z,1026.54
2019-03-20T03:35:01.890Z,1026.54
2019-03-20T03:36:01.852Z,1026.57
2019-03-20T03:37:01.919Z,1026.59
2019-03-20T03:38:01.836Z,1026.58
2019-03-20T03:39:01.816Z,1026.58
2019-03-20T03:40:01.830Z,1026.62
2019-03-20T03:41:01.800Z,1026.58
2019-03-20T03:42:01.800Z,1026.62
2019-03-20T03:43:01.820Z,1026.65
2019-03-20T03:44:01.790Z,1026.63
2019-03-20T03:45:01.881Z,1026.64
2019-03-20T03:46:01.760Z,1026.64
2019-03-20T03:47:01.754Z,1026.65
2019-03-20T03:48:01.750Z,1026.72
2019-03-20T03:49:01.730Z,1026.70
2019-03-20T03:50:01.753Z,1026.69
2019-03-20T03:51:01.735Z,1026.68
2019-03-20T03:52:01.695Z,1026.72
2019-03-20T03:53:01.675Z,1026.72
2019-03-20T03:54:01.685Z,1026.70
2019-03-20T03:55:01.823Z,1026.69
2019-03-20T03:56:01.648Z,1026.68
2019-03-20T03:57:01.669Z,1026.69
2019-03-20T03:58:01.663Z,1026.68
2019-03-20T03:59:01.623Z,1026.65
2019-03-20T04:00:01.635Z,1026.69
2019-03-20T04:01:01.626Z,1026.73
2019-03-20T04:02:01.611Z,1026.72
2019-03-20T04:03:01.577Z,1026.73
2019-03-20T04:04:01.578Z,1026.72
2019-03-20T04:05:01.585Z,1026.71
2019-03-20T04:06:01.571Z,1026.75
2019-03-20T04:07:01.542Z,1026.73
2019-03-20T04:08:01.579Z,1026.76
2019-03-20T04:09:01.540Z,1026.76
2019-03-20T04:10:01.582Z,1026.78
2019-03-20T04:11:02.127Z,1026.78
2019-03-20T04:12:01.522Z,1026.77
2019-03-20T04:13:01.481Z,1026.77
2019-03-20T04:14:02.044Z,1026.83
2019-03-20T04:15:01.537Z,1026.79
2019-03-20T04:16:01.518Z,1026.80
2019-03-20T04:17:01.444Z,1026.79
2019-03-20T04:18:01.423Z,1026.76
2019-03-20T04:19:02.107Z,1026.81
2019-03-20T04:20:01.575Z,1026.87
2019-03-20T04:21:01.526Z,1026.85
2019-03-20T04:22:01.408Z,1026.82
2019-03-20T04:23:01.371Z,1026.80
2019-03-20T04:24:01.381Z,1026.79
2019-03-20T04:25:01.363Z,1026.84
2019-03-20T04:26:01.345Z,1026.83
2019-03-20T04:27:01.366Z,1026.85
2019-03-20T04:28:01.416Z,1026.79
2019-03-20T04:29:01.337Z,1026.84
2019-03-20T04:30:01.305Z,1026.88
2019-03-20T04:31:01.393Z,1026.92
2019-03-20T04:32:01.303Z,1026.94
2019-03-20T04:33:01.311Z,1026.93
2019-03-20T04:34:01.258Z,1026.92
2019-03-20T04:35:01.299Z,1026.97
2019-03-20T04:36:02.051Z,1027.01
2019-03-20T04:37:01.440Z,1026.96
2019-03-20T04:38:01.246Z,1026.98
2019-03-20T04:39:01.248Z,1026.97
2019-03-20T04:40:01.284Z,1027.01
2019-03-20T04:41:01.729Z,1027.04
2019-03-20T04:42:01.337Z,1027.03
2019-03-20T04:43:01.277Z,1027.06
2019-03-20T04:44:01.167Z,1027.05
2019-03-20T04:45:01.196Z,1027.06
2019-03-20T04:46:01.194Z,1027.06
2019-03-20T04:47:01.191Z,1027.06
2019-03-20T04:48:01.133Z,1027.08
2019-03-20T04:49:01.117Z,1027.08
2019-03-20T04:50:01.378Z,1027.08
2019-03-20T04:51:02.050Z,1027.05
2019-03-20T04:52:01.083Z,1027.05
2019-03-20T04:53:02.045Z,1027.06
2019-03-20T04:54:01.056Z,1027.03
2019-03-20T04:55:01.082Z,1027.10
2019-03-20T04:56:01.063Z,1027.05
2019-03-20T04:57:01.023Z,1027.05
2019-03-20T04:58:01.050Z,1027.05
2019-03-20T04:59:01.023Z,1027.06
2019-03-20T05:00:01.003Z,1027.04
2019-03-20T05:01:01.004Z,1027.07
2019-03-20T05:02:01.186Z,1027.07
2019-03-20T05:03:01.822Z,1027.07
2019-03-20T05:04:02.250Z,1027.08
2019-03-20T05:05:00.992Z,1027.12
2019-03-20T05:06:00.983Z,1027.16
2019-03-20T05:07:00.967Z,1027.18
2019-03-20T05:08:00.932Z,1027.19
2019-03-20T05:09:00.911Z,1027.23
2019-03-20T05:10:00.908Z,1027.21
2019-03-20T05:11:00.921Z,1027.18
2019-03-20T05:12:00.872Z,1027.19
2019-03-20T05:13:00.972Z,1027.20
2019-03-20T05:14:00.864Z,1027.22
2019-03-20T05:15:00.884Z,1027.18
2019-03-20T05:16:00.876Z,1027.21
2019-03-20T05:17:00.854Z,1027.20
2019-03-20T05:18:00.850Z,1027.19
2019-03-20T05:19:00.800Z,1027.14
2019-03-20T05:20:00.794Z,1027.14
2019-03-20T05:21:03.062Z,1027.18
2019-03-20T05:22:00.803Z,1027.20
2019-03-20T05:23:00.775Z,1027.22
2019-03-20T05:24:00.800Z,1027.28
2019-03-20T05:25:00.741Z,1027.21
2019-03-20T05:26:00.880Z,1027.26
2019-03-20T05:27:02.551Z,1027.20
2019-03-20T05:28:00.749Z,1027.25
2019-03-20T05:29:00.714Z,1027.27
2019-03-20T05:30:00.683Z,1027.28
2019-03-20T05:31:00.691Z,1027.29
2019-03-20T05:32:00.668Z,1027.34
2019-03-20T05:33:00.694Z,1027.34
2019-03-20T05:34:00.677Z,1027.35
2019-03-20T05:35:00.673Z,1027.29
2019-03-20T05:36:00.641Z,1027.32
2019-03-20T05:37:09.858Z,1027.32
2019-03-20T05:38:01.612Z,1027.35
2019-03-20T05:39:00.883Z,1027.36
2019-03-20T05:40:00.651Z,1027.38
2019-03-20T05:41:00.813Z,1027.35
2019-03-20T05:42:00.588Z,1027.34
2019-03-20T05:43:00.662Z,1027.30
2019-03-20T05:44:00.618Z,1027.33
2019-03-20T05:45:00.583Z,1027.37
2019-03-20T05:46:00.623Z,1027.35
2019-03-20T05:47:00.618Z,1027.33
2019-03-20T05:48:00.560Z,1027.38
2019-03-20T05:49:00.574Z,1027.38
2019-03-20T05:50:00.579Z,1027.35
2019-03-20T05:51:02.644Z,1027.35
2019-03-20T05:52:00.496Z,1027.35
2019-03-20T05:53:00.506Z,1027.37
2019-03-20T05:54:00.481Z,1027.35
2019-03-20T05:55:00.464Z,1027.37
2019-03-20T05:56:00.416Z,1027.40
2019-03-20T05:57:00.480Z,1027.36
2019-03-20T05:58:00.482Z,1027.36
2019-03-20T05:59:00.493Z,1027.33
2019-03-20T06:00:01.260Z,1027.34
2019-03-20T06:01:00.542Z,1027.30
2019-03-20T06:02:00.457Z,1027.29
2019-03-20T06:03:00.388Z,1027.32
2019-03-20T06:04:00.428Z,1027.37
2019-03-20T06:05:00.553Z,1027.33
2019-03-20T06:06:00.523Z,1027.33
2019-03-20T06:07:00.348Z,1027.33
2019-03-20T06:08:01.075Z,1027.34
2019-03-20T06:09:00.392Z,1027.33
2019-03-20T06:10:00.382Z,1027.36
2019-03-20T06:11:00.346Z,1027.33
2019-03-20T06:12:01.560Z,1027.38
2019-03-20T06:13:00.342Z,1027.39
2019-03-20T06:14:00.329Z,1027.39
2019-03-20T06:15:01.355Z,1027.38
2019-03-20T06:16:00.340Z,1027.36
2019-03-20T06:17:00.958Z,1027.38
2019-03-20T06:18:00.373Z,1027.41
2019-03-20T06:19:00.217Z,1027.41
2019-03-20T06:20:00.409Z,1027.45
2019-03-20T06:21:01.671Z,1027.44
2019-03-20T06:22:00.255Z,1027.45
2019-03-20T06:23:00.193Z,1027.46
2019-03-20T06:24:00.158Z,1027.46
2019-03-20T06:25:00.351Z,1027.51
2019-03-20T06:26:01.230Z,1027.55
2019-03-20T06:27:01.130Z,1027.51
2019-03-20T06:28:00.097Z,1027.50
2019-03-20T06:29:05.465Z,1027.52
2019-03-20T06:30:01.585Z,1027.53
2019-03-20T06:31:00.152Z,1027.58
2019-03-20T06:32:00.118Z,1027.59
2019-03-20T06:33:00.084Z,1027.56
2019-03-20T06:34:18.982Z,1027.59
2019-03-20T06:35:00.350Z,1027.60
2019-03-20T06:36:05.023Z,1027.63
2019-03-20T06:37:07.709Z,1027.60
2019-03-20T06:38:01.376Z,1027.66
2019-03-20T06:39:04.902Z,1027.66
2019-03-20T06:40:00.060Z,1027.62
2019-03-20T06:41:00.003Z,1027.60
2019-03-20T06:42:01.097Z,1027.59
2019-03-20T06:43:00.610Z,1027.64
2019-03-20T06:44:00.784Z,1027.69
2019-03-20T06:45:00.022Z,1027.68
2019-03-20T06:46:06.835Z,1027.65
2019-03-20T06:47:03.246Z,1027.71
2019-03-20T06:48:01.975Z,1027.69
2019-03-20T06:49:07.954Z,1027.70
2019-03-20T06:49:59.918Z,1027.69
2019-03-20T06:50:59.933Z,1027.69
2019-03-20T06:51:59.974Z,1027.70
2019-03-20T06:52:59.948Z,1027.69
2019-03-20T06:53:59.858Z,1027.75
2019-03-20T06:55:01.062Z,1027.70
2019-03-20T06:56:00.562Z,1027.71
2019-03-20T06:57:00.664Z,1027.74
2019-03-20T06:58:01.178Z,1027.73
2019-03-20T06:58:59.890Z,1027.80
2019-03-20T07:00:00.348Z,1027.78
2019-03-20T07:00:59.843Z,1027.78
2019-03-20T07:01:59.894Z,1027.76
2019-03-20T07:02:59.875Z,1027.78
2019-03-20T07:03:59.855Z,1027.77
2019-03-20T07:05:00.067Z,1027.78
2019-03-20T07:06:00.561Z,1027.74
2019-03-20T07:06:59.761Z,1027.78
2019-03-20T07:07:59.767Z,1027.74
2019-03-20T07:08:59.764Z,1027.76
2019-03-20T07:09:59.689Z,1027.74
2019-03-20T07:10:59.652Z,1027.70
2019-03-20T07:11:59.799Z,1027.77
2019-03-20T07:12:59.670Z,1027.71
2019-03-20T07:13:59.625Z,1027.71
2019-03-20T07:14:59.692Z,1027.70
2019-03-20T07:15:59.609Z,1027.72
2019-03-20T07:16:59.740Z,1027.73
2019-03-20T07:17:59.618Z,1027.78
2019-03-20T07:18:59.554Z,1027.75
2019-03-20T07:19:59.593Z,1027.73
2019-03-20T07:20:59.657Z,1027.71
2019-03-20T07:21:59.578Z,1027.76
2019-03-20T07:22:59.527Z,1027.72
2019-03-20T07:23:59.527Z,1027.80
2019-03-20T07:24:59.492Z,1027.75
2019-03-20T07:25:59.497Z,1027.77
2019-03-20T07:27:00.602Z,1027.77
2019-03-20T07:27:59.471Z,1027.75
2019-03-20T07:29:00.220Z,1027.75
2019-03-20T07:29:59.545Z,1027.75
2019-03-20T07:30:59.498Z,1027.75
2019-03-20T07:31:59.443Z,1027.76
2019-03-20T07:32:59.499Z,1027.74
2019-03-20T07:34:00.120Z,1027.73
2019-03-20T07:34:59.402Z,1027.68
2019-03-20T07:35:59.400Z,1027.65
2019-03-20T07:36:59.379Z,1027.70
2019-03-20T07:37:59.368Z,1027.68
2019-03-20T07:39:00.197Z,1027.66
2019-03-20T07:39:59.346Z,1027.66
2019-03-20T07:40:59.391Z,1027.66
2019-03-20T07:41:59.320Z,1027.69
2019-03-20T07:43:08.221Z,1027.66
2019-03-20T07:44:01.067Z,1027.65
2019-03-20T07:44:59.281Z,1027.67
2019-03-20T07:45:59.285Z,1027.66
2019-03-20T07:46:59.291Z,1027.66
2019-03-20T07:47:59.275Z,1027.67
2019-03-20T07:48:59.302Z,1027.67
2019-03-20T07:49:59.249Z,1027.68
2019-03-20T07:50:59.269Z,1027.70
2019-03-20T07:51:59.207Z,1027.72
2019-03-20T07:52:59.210Z,1027.71
2019-03-20T07:53:59.354Z,1027.77
2019-03-20T07:55:00.142Z,1027.75
2019-03-20T07:55:59.163Z,1027.77
2019-03-20T07:56:59.162Z,1027.76
2019-03-20T07:57:59.181Z,1027.78
2019-03-20T07:58:59.166Z,1027.74
2019-03-20T07:59:59.143Z,1027.76
2019-03-20T08:00:59.105Z,1027.75
2019-03-20T08:01:59.158Z,1027.80
2019-03-20T08:02:59.118Z,1027.85
2019-03-20T08:03:59.106Z,1027.89
2019-03-20T08:04:59.122Z,1027.90
2019-03-20T08:05:59.152Z,1027.88
2019-03-20T08:06:59.084Z,1027.84
2019-03-20T08:08:07.360Z,1027.77
2019-03-20T08:09:00.030Z,1027.82
2019-03-20T08:09:59.037Z,1027.86
2019-03-20T08:10:59.006Z,1027.86
2019-03-20T08:11:59.002Z,1027.85
2019-03-20T08:12:58.988Z,1027.86
2019-03-20T08:13:59.049Z,1027.86
2019-03-20T08:14:58.990Z,1027.87
2019-03-20T08:15:58.962Z,1027.86
2019-03-20T08:16:59.034Z,1027.84
2019-03-20T08:17:58.952Z,1027.83
2019-03-20T08:18:58.962Z,1027.85
2019-03-20T08:19:59.073Z,1027.79
2019-03-20T08:20:58.906Z,1027.80
2019-03-20T08:21:58.914Z,1027.81
2019-03-20T08:22:58.965Z,1027.81
2019-03-20T08:23:58.895Z,1027.84
2019-03-20T08:24:58.891Z,1027.83
2019-03-20T08:25:58.878Z,1027.81
2019-03-20T08:26:58.894Z,1027.82
2019-03-20T08:27:58.830Z,1027.85
2019-03-20T08:28:58.849Z,1027.88
2019-03-20T08:29:58.813Z,1027.84
2019-03-20T08:30:58.814Z,1027.89
2019-03-20T08:31:58.797Z,1027.88
2019-03-20T08:32:58.803Z,1027.91
2019-03-20T08:33:58.760Z,1027.93
2019-03-20T08:34:58.803Z,1027.88
2019-03-20T08:35:59.578Z,1027.85
2019-03-20T08:36:58.852Z,1027.84
2019-03-20T08:37:58.795Z,1027.90
2019-03-20T08:38:58.772Z,1027.91
2019-03-20T08:40:00.125Z,1027.90
2019-03-20T08:40:58.697Z,1027.93
2019-03-20T08:41:58.689Z,1027.85
2019-03-20T08:42:58.747Z,1027.82
2019-03-20T08:43:59.579Z,1027.90
2019-03-20T08:44:58.691Z,1027.87
2019-03-20T08:45:58.683Z,1027.87
2019-03-20T08:46:59.580Z,1027.90
2019-03-20T08:47:59.156Z,1027.87
2019-03-20T08:48:58.635Z,1027.85
2019-03-20T08:49:58.647Z,1027.83
2019-03-20T08:50:58.639Z,1027.82
2019-03-20T08:51:58.580Z,1027.87
2019-03-20T08:52:58.654Z,1027.83
2019-03-20T08:53:58.682Z,1027.83
2019-03-20T08:54:58.615Z,1027.78
2019-03-20T08:55:58.530Z,1027.81
2019-03-20T08:56:58.676Z,1027.80
2019-03-20T08:57:58.541Z,1027.81
2019-03-20T08:58:58.525Z,1027.86
2019-03-20T08:59:58.494Z,1027.78
2019-03-20T09:00:58.504Z,1027.83
2019-03-20T09:01:58.492Z,1027.86
2019-03-20T09:02:58.473Z,1027.90
2019-03-20T09:03:58.465Z,1027.91
2019-03-20T09:04:58.451Z,1027.84
2019-03-20T09:06:00.100Z,1027.88
2019-03-20T09:06:58.418Z,1027.84
2019-03-20T09:07:58.556Z,1027.90
2019-03-20T09:08:58.410Z,1027.94
2019-03-20T09:09:58.388Z,1027.92
2019-03-20T09:10:58.433Z,1027.94
2019-03-20T09:11:58.489Z,1027.98
2019-03-20T09:12:58.520Z,1028.05
2019-03-20T09:13:58.333Z,1028.04
2019-03-20T09:14:58.317Z,1028.08
2019-03-20T09:15:58.326Z,1028.00
2019-03-20T09:16:58.338Z,1028.00
2019-03-20T09:17:58.322Z,1028.00
2019-03-20T09:18:58.295Z,1028.09
2019-03-20T09:19:58.278Z,1028.02
2019-03-20T09:20:58.259Z,1028.05
2019-03-20T09:21:58.326Z,1028.03
2019-03-20T09:22:58.223Z,1028.06
2019-03-20T09:23:58.227Z,1028.07
2019-03-20T09:24:58.283Z,1028.06
2019-03-20T09:25:58.228Z,1028.07
2019-03-20T09:26:58.191Z,1028.13
2019-03-20T09:27:58.213Z,1028.09
2019-03-20T09:28:58.174Z,1028.11
2019-03-20T09:29:58.168Z,1028.09
2019-03-20T09:30:58.194Z,1028.11
2019-03-20T09:31:58.150Z,1028.15
2019-03-20T09:32:58.158Z,1028.14
2019-03-20T09:33:58.198Z,1028.14
2019-03-20T09:34:58.111Z,1028.15
2019-03-20T09:35:58.146Z,1028.10
2019-03-20T09:36:58.087Z,1028.11
2019-03-20T09:37:58.093Z,1028.11
2019-03-20T09:38:58.115Z,1028.14
2019-03-20T09:39:58.047Z,1028.12
2019-03-20T09:40:58.054Z,1028.11
2019-03-20T09:41:58.036Z,1028.08
2019-03-20T09:42:58.021Z,1028.15
2019-03-20T09:43:58.081Z,1028.14
2019-03-20T09:44:58.037Z,1028.09
2019-03-20T09:45:58.016Z,1028.14
2019-03-20T09:46:57.992Z,1028.10
2019-03-20T09:47:57.985Z,1028.12
2019-03-20T09:48:58.011Z,1028.10
2019-03-20T09:49:57.979Z,1028.09
2019-03-20T09:50:57.948Z,1028.09
2019-03-20T09:51:57.928Z,1028.09
2019-03-20T09:52:57.919Z,1028.10
2019-03-20T09:53:57.900Z,1028.08
2019-03-20T09:54:57.935Z,1028.05
2019-03-20T09:55:57.893Z,1028.05
2019-03-20T09:56:57.874Z,1028.04
2019-03-20T09:57:57.861Z,1028.02
2019-03-20T09:58:57.857Z,1027.97
2019-03-20T09:59:57.844Z,1027.97
2019-03-20T10:00:57.854Z,1027.91
2019-03-20T10:01:57.833Z,1027.90
2019-03-20T10:02:57.808Z,1027.85
2019-03-20T10:03:57.796Z,1027.84
2019-03-20T10:04:57.850Z,1027.88
2019-03-20T10:05:57.830Z,1027.85
2019-03-20T10:06:57.775Z,1027.90
2019-03-20T10:07:57.757Z,1027.88
2019-03-20T10:08:57.727Z,1027.87
2019-03-20T10:09:57.735Z,1027.84
2019-03-20T10:10:57.746Z,1027.83
2019-03-20T10:11:57.721Z,1027.84
2019-03-20T10:12:57.711Z,1027.85
2019-03-20T10:13:57.683Z,1027.78
2019-03-20T10:14:57.707Z,1027.76
2019-03-20T10:15:57.699Z,1027.74
2019-03-20T10:16:57.661Z,1027.69
2019-03-20T10:17:57.649Z,1027.69
2019-03-20T10:18:57.630Z,1027.69
2019-03-20T10:19:57.732Z,1027.61
2019-03-20T10:20:57.683Z,1027.63
2019-03-20T10:21:57.810Z,1027.63
2019-03-20T10:22:57.697Z,1027.57
2019-03-20T10:23:57.614Z,1027.59
2019-03-20T10:24:57.835Z,1027.61
2019-03-20T10:25:57.672Z,1027.62
2019-03-20T10:26:57.607Z,1027.58
2019-03-20T10:27:57.567Z,1027.61
2019-03-20T10:28:57.545Z,1027.55
2019-03-20T10:29:57.559Z,1027.58
2019-03-20T10:30:57.560Z,1027.61
2019-03-20T10:31:57.586Z,1027.59
2019-03-20T10:32:57.511Z,1027.65
2019-03-20T10:33:58.104Z,1027.69
2019-03-20T10:34:59.108Z,1027.64
2019-03-20T10:35:58.152Z,1027.58
2019-03-20T10:36:58.112Z,1027.69
2019-03-20T10:37:57.468Z,1027.65
2019-03-20T10:39:06.553Z,1027.64
2019-03-20T10:39:59.104Z,1027.64
2019-03-20T10:40:57.578Z,1027.64
2019-03-20T10:41:57.501Z,1027.70
2019-03-20T10:42:57.480Z,1027.66
2019-03-20T10:43:57.384Z,1027.70
2019-03-20T10:44:57.487Z,1027.73
2019-03-20T10:45:57.352Z,1027.73
2019-03-20T10:46:57.394Z,1027.77
2019-03-20T10:47:57.438Z,1027.75
2019-03-20T10:48:58.234Z,1027.77
2019-03-20T10:49:57.336Z,1027.84
2019-03-20T10:50:57.341Z,1027.83
2019-03-20T10:51:57.335Z,1027.82
2019-03-20T10:52:57.302Z,1027.82
2019-03-20T10:53:57.283Z,1027.82
2019-03-20T10:54:57.286Z,1027.86
2019-03-20T10:55:57.272Z,1027.76
2019-03-20T10:56:57.238Z,1027.77
2019-03-20T10:57:57.392Z,1027.76
2019-03-20T10:58:57.236Z,1027.79
2019-03-20T10:59:57.268Z,1027.74
2019-03-20T11:00:57.233Z,1027.76
2019-03-20T11:01:57.175Z,1027.73
2019-03-20T11:02:57.189Z,1027.77
2019-03-20T11:03:57.191Z,1027.74
2019-03-20T11:04:57.139Z,1027.73
2019-03-20T11:05:57.162Z,1027.66
2019-03-20T11:06:57.128Z,1027.68
2019-03-20T11:07:57.154Z,1027.70
2019-03-20T11:08:57.229Z,1027.72
2019-03-20T11:09:57.142Z,1027.69
2019-03-20T11:10:57.090Z,1027.70
2019-03-20T11:11:57.096Z,1027.72
2019-03-20T11:12:57.087Z,1027.69
2019-03-20T11:13:57.073Z,1027.69
2019-03-20T11:14:57.143Z,1027.68
2019-03-20T11:15:57.079Z,1027.65
2019-03-20T11:16:57.027Z,1027.53
2019-03-20T11:17:57.023Z,1027.56
2019-03-20T11:18:57.031Z,1027.55
2019-03-20T11:19:57.007Z,1027.57
2019-03-20T11:20:57.023Z,1027.55
2019-03-20T11:21:57.112Z,1027.49
2019-03-20T11:22:56.963Z,1027.56
2019-03-20T11:23:57.157Z,1027.49
2019-03-20T11:24:57.028Z,1027.54
2019-03-20T11:25:56.950Z,1027.57
2019-03-20T11:26:56.943Z,1027.59
2019-03-20T11:27:56.923Z,1027.58
2019-03-20T11:28:56.909Z,1027.56
2019-03-20T11:29:56.916Z,1027.63
2019-03-20T11:30:56.945Z,1027.59
2019-03-20T11:31:57.030Z,1027.58
2019-03-20T11:32:57.629Z,1027.54
2019-03-20T11:33:56.860Z,1027.61
2019-03-20T11:34:56.856Z,1027.59
2019-03-20T11:35:56.843Z,1027.55
2019-03-20T11:36:56.817Z,1027.55
2019-03-20T11:37:56.801Z,1027.51
2019-03-20T11:38:56.802Z,1027.54
2019-03-20T11:39:56.812Z,1027.50
2019-03-20T11:40:56.773Z,1027.46
2019-03-20T11:41:56.790Z,1027.53
2019-03-20T11:42:56.767Z,1027.51
2019-03-20T11:43:56.722Z,1027.51
2019-03-20T11:44:56.726Z,1027.48
2019-03-20T11:45:56.706Z,1027.48
2019-03-20T11:46:56.718Z,1027.44
2019-03-20T11:47:56.730Z,1027.47
2019-03-20T11:48:56.707Z,1027.44
2019-03-20T11:49:56.689Z,1027.47
2019-03-20T11:50:56.675Z,1027.48
2019-03-20T11:51:56.696Z,1027.45
2019-03-20T11:52:56.656Z,1027.46
2019-03-20T11:53:56.606Z,1027.50
2019-03-20T11:54:56.610Z,1027.40
2019-03-20T11:55:56.593Z,1027.45
2019-03-20T11:56:56.686Z,1027.41
2019-03-20T11:57:56.639Z,1027.43
2019-03-20T11:58:56.634Z,1027.41
2019-03-20T11:59:56.547Z,1027.47
2019-03-20T12:00:56.546Z,1027.49
2019-03-20T12:01:56.612Z,1027.50
2019-03-20T12:02:56.547Z,1027.50
2019-03-20T12:03:56.554Z,1027.43
2019-03-20T12:04:56.543Z,1027.37